Nearby METAR Reports

 

EGNM - Leeds And Bradford, United Kingdom
Distance from station: N 11mi, 18km
Updated: 19/06/2019 16:50
Few Clouds
Few Clouds
 Wind from W
Wind: W 13 mph , 20 km/h
Temperature: 17°C
Dew Point: 9°C
Humidity: 59%
Barometer: 1007 hPa
Clouds: Few Clouds
Visibility: 6 miles , 10 km
Cloud details: Few Clouds 975 m
2019/06/19 16:50 EGNM 191650Z 28011KT 9999 FEW032 17/09 Q1007
EGXU - Linton-On-Ouse, United Kingdom
Distance from station: NNE 28mi, 45km
Updated: 19/06/2019 15:50
Partly cloudy
Partly cloudy
 Wind from SSW
Wind: SSW 3 mph , 6 km/h
Temperature: 18°C
Dew Point: 11°C
Humidity: 64%
Barometer: 1006 hPa
Clouds: Partly cloudy
Visibility: 6 miles , 10 km
Cloud details: Partly cloudy 975 m
Partly cloudy 2134 m
2019/06/19 15:50 EGXU 191550Z 21003KT 9999 SCT032 SCT070 18/11 Q1006 NOSIG RMK BLU BLU
 
EGCN - Doncaster Sheffield, United Kingdom
Distance from station: ESE 30mi, 45km
Updated: 19/06/2019 16:50
Partly cloudy
Partly cloudy
 Wind from varies
Wind: varies 2 mph , 4 km/h
Temperature: 18°C
Dew Point: 12°C
Humidity: 68%
Barometer: 1007 hPa
Clouds: Partly cloudy
Visibility: 6 miles , 10 km
Cloud details: Partly cloudy 1128 m
2019/06/19 16:50 EGCN 191650Z VRB02KT 9999 SCT037 18/12 Q1007
EGXZ - Topcliffe RAF, United Kingdom
Distance from station: NNE 36mi, 57km
Updated: 19/06/2019 15:50
Mostly cloudy
Mostly cloudy
 Wind from S
Wind: S 3 mph , 6 km/h
Temperature: 19°C
Dew Point: 12°C
Humidity: 64%
Barometer: 1006 hPa
Clouds: Mostly cloudy
Visibility: 6 miles , 10 km
Cloud details: Partly cloudy 2134 m
Mostly cloudy 4572 m
2019/06/19 15:50 EGXZ 191550Z AUTO 19003KT 9999 SCT070/// BKN150/// 19/12 Q1006
 
EGCC - Manchester Intl, United Kingdom
Distance from station: SW 36mi, 58km
Updated: 19/06/2019 16:20
Clear
Clear
 Wind from W
Wind: W 12 mph , 19 km/h
Temperature: 18°C
Dew Point: 10°C
Humidity: 60%
Barometer: 1008 hPa
Clouds: Clear
Visibility: 6 miles , 10 km
2019/06/19 16:20 EGCC 191620Z AUTO 28010KT 9999 NCD 18/10 Q1008 NOSIG
EGXE - Leeming RAF, United Kingdom
Distance from station: N 40mi, 65km
Updated: 19/06/2019 15:50
Few Clouds
Few Clouds
 Wind from SW
Wind: SW 2 mph , 4 km/h
Temperature: 19°C
Dew Point: 10°C
Humidity: 56%
Barometer: 1006 hPa
Clouds: Few Clouds
Visibility: 6 miles , 10 km
Cloud details: Few Clouds 1097 m
2019/06/19 15:50 EGXE 191550Z 22002KT 9999 FEW036 19/10 Q1006 NOSIG RMK BLU BLU